Time;durP1;ratioP1;P1;durP2;ratioP2;P2;SDS_P1;SDS_P2;PMS_P1;PMS_P2;Temp;Humidity;BMP_temperature;BMP_pressure;BME280_temperature;BME280_humidity;BME280_pressure;Samples;Min_cycle;Max_cycle;Signal;HPM_P1;HPM_P2
2022/09/22 00:00:16;;;;;;;2.63;2.23;;;;;;;8.42;100.00;102567.84;6118886;23;20205;-74
2022/09/22 00:02:41;;;;;;;4.10;2.67;;;;;;;7.06;100.00;102230.50;6115532;23;20453;-74
2022/09/22 00:05:07;;;;;;;4.50;2.30;;;;;;;8.03;100.00;102452.06;6120485;23;20393;-74
2022/09/22 00:07:33;;;;;;;2.60;1.83;;;;;;;8.05;100.00;102453.59;6117880;23;20494;-74
2022/09/22 00:09:58;;;;;;;5.17;2.50;;;;;;;8.04;100.00;102472.44;6116830;23;20538;-74
2022/09/22 00:12:23;;;;;;;4.40;2.40;;;;;;;7.97;100.00;102458.81;6118925;23;20841;-74
2022/09/22 00:14:49;;;;;;;3.00;2.10;;;;;;;6.97;100.00;102293.56;6117875;23;20719;-74
2022/09/22 00:17:14;;;;;;;5.20;2.37;;;;;;;6.77;100.00;102218.06;6118101;23;20624;-74
2022/09/22 00:19:40;;;;;;;1.90;1.77;;;;;;;8.78;100.00;102552.84;6118740;23;20158;-74
2022/09/22 00:22:05;;;;;;;3.40;2.03;;;;;;;8.29;100.00;102497.72;6115840;23;20307;-76
2022/09/22 00:24:31;;;;;;;2.43;1.80;;;;;;;7.23;100.00;102342.75;6116074;23;20189;-75
2022/09/22 00:26:58;;;;;;;4.50;2.03;;;;;;;6.97;100.00;102270.41;6116587;23;20180;-74
2022/09/22 00:29:25;;;;;;;3.47;1.87;;;;;;;7.21;100.00;102319.84;6117494;23;20225;-74
2022/09/22 00:31:51;;;;;;;1.83;1.63;;;;;;;8.23;100.00;102491.13;6117142;23;20460;-75
2022/09/22 00:34:19;;;;;;;2.60;1.77;;;;;;;6.97;100.00;102325.56;6114452;23;20903;-74
2022/09/22 00:36:45;;;;;;;3.10;1.70;;;;;;;8.47;100.00;102567.41;6114749;23;20402;-74
2022/09/22 00:39:12;;;;;;;3.80;2.10;;;;;;;6.56;100.00;102228.81;6116624;23;20410;-74
2022/09/22 00:41:40;;;;;;;2.37;2.07;;;;;;;6.80;100.00;102252.44;6116332;23;20408;-74
2022/09/22 00:44:28;;;;;;;2.77;1.77;;;;;;;9.04;100.00;102645.88;6117691;23;20456;-73
2022/09/22 00:47:26;;;;;;;2.30;1.60;;;;;;;7.64;100.00;102404.00;6120143;23;20412;-73
2022/09/22 00:49:57;;;;;;;3.10;1.90;;;;;;;8.73;100.00;102658.59;6039053;23;20398;-75
2022/09/22 00:52:27;;;;;;;2.40;1.93;;;;;;;7.56;100.00;102435.91;6116641;23;20377;-74
2022/09/22 00:54:58;;;;;;;2.83;1.77;;;;;;;7.55;100.00;102394.16;6120400;23;20418;-74
2022/09/22 00:57:28;;;;;;;2.47;1.70;;;;;;;7.33;100.00;102406.78;6118660;23;20412;-74
2022/09/22 00:59:54;;;;;;;2.03;1.83;;;;;;;6.48;100.00;102289.97;6118313;23;20481;-74
2022/09/22 01:02:20;;;;;;;2.40;1.97;;;;;;;6.97;100.00;102377.13;6118664;23;20412;-73
2022/09/22 01:04:49;;;;;;;2.20;1.93;;;;;;;7.79;100.00;102469.38;6120541;23;20237;-74
2022/09/22 01:07:15;;;;;;;2.93;1.90;;;;;;;8.84;100.00;102637.03;6110925;23;20398;-74
2022/09/22 01:09:41;;;;;;;1.97;1.80;;;;;;;8.48;100.00;102583.31;6119409;23;20441;-75
2022/09/22 01:12:06;;;;;;;3.03;1.90;;;;;;;7.92;100.00;102477.91;6116156;23;20471;-74
2022/09/22 01:14:51;;;;;;;3.00;2.20;;;;;;;8.06;100.00;102515.91;6115689;23;20158;-73
2022/09/22 01:17:32;;;;;;;2.47;2.20;;;;;;;8.79;100.00;102621.44;6118086;23;20178;-74
2022/09/22 01:20:32;;;;;;;2.90;2.10;;;;;;;8.93;100.00;102619.28;6119313;23;20384;-74
2022/09/22 01:23:32;;;;;;;7.43;2.10;;;;;;;8.55;100.00;102571.03;6116334;23;20946;-74
2022/09/22 01:26:16;;;;;;;4.13;2.73;;;;;;;8.82;100.00;102614.91;6118017;23;20767;-74
2022/09/22 01:29:21;;;;;;;2.70;1.97;;;;;;;8.82;100.00;102597.06;6092813;23;20853;-73
2022/09/22 01:32:00;;;;;;;3.90;2.13;;;;;;;8.24;100.00;102514.19;6116187;23;20378;-74
2022/09/22 01:34:31;;;;;;;5.13;2.37;;;;;;;8.80;100.00;102609.72;6113751;23;20420;-74
2022/09/22 01:37:35;;;;;;;3.20;2.87;;;;;;;9.00;100.00;102610.53;6119743;23;20783;-74
2022/09/22 01:40:11;;;;;;;2.93;2.63;;;;;;;8.83;100.00;102604.09;6117408;23;20386;-74
2022/09/22 01:42:43;;;;;;;3.30;2.30;;;;;;;8.87;100.00;102601.13;6115833;23;20417;-73
2022/09/22 01:45:10;;;;;;;2.63;2.27;;;;;;;8.84;100.00;102599.56;6091806;23;20378;-73
2022/09/22 01:47:56;;;;;;;3.23;1.70;;;;;;;8.23;100.00;102509.84;6120709;23;20401;-73
2022/09/22 01:50:31;;;;;;;3.83;2.30;;;;;;;8.81;100.00;102599.88;6118821;23;20388;-73
2022/09/22 01:53:00;;;;;;;2.70;2.00;;;;;;;8.71;100.00;102596.38;6120337;23;20371;-73
2022/09/22 01:55:32;;;;;;;1.97;1.80;;;;;;;7.97;100.00;102487.34;6119538;23;20416;-74
2022/09/22 01:58:11;;;;;;;3.33;2.23;;;;;;;8.12;100.00;102491.28;6119715;23;20447;-74
2022/09/22 02:00:41;;;;;;;2.80;1.87;;;;;;;8.75;100.00;102593.25;6120777;23;20372;-73
2022/09/22 02:03:37;;;;;;;2.27;1.90;;;;;;;8.67;100.00;102597.63;6119505;23;20428;-73
2022/09/22 02:06:28;;;;;;;3.77;1.93;;;;;;;7.83;100.00;102456.56;6117586;23;20413;-73
2022/09/22 02:09:05;;;;;;;3.83;2.23;;;;;;;8.73;100.00;102595.22;6119380;23;20714;-73
2022/09/22 02:11:31;;;;;;;2.93;2.00;;;;;;;8.45;100.00;102583.59;6120442;23;20384;-73
2022/09/22 02:13:57;;;;;;;2.63;2.30;;;;;;;7.45;100.00;102443.06;6117048;23;20378;-74
2022/09/22 02:16:23;;;;;;;3.20;1.80;;;;;;;8.27;100.00;102591.44;6118246;23;20378;-74
2022/09/22 02:19:12;;;;;;;2.20;2.00;;;;;;;7.67;100.00;102471.34;6094758;23;20377;-73
2022/09/22 02:21:39;;;;;;;3.10;2.30;;;;;;;8.12;100.00;102510.81;6119995;23;20404;-73
2022/09/22 02:24:05;;;;;;;3.07;1.87;;;;;;;7.76;100.00;102450.94;6117900;23;20425;-74
2022/09/22 02:26:34;;;;;;;3.33;2.27;;;;;;;8.36;100.00;102584.38;6114924;23;20797;-74
2022/09/22 02:29:09;;;;;;;3.60;2.20;;;;;;;7.66;100.00;102466.94;6091037;23;20390;-73
2022/09/22 02:31:38;;;;;;;2.67;1.67;;;;;;;7.41;100.00;102471.03;6119847;23;20496;-74
2022/09/22 02:34:05;;;;;;;1.70;1.60;;;;;;;7.41;100.00;102471.03;6115978;23;20373;-73
2022/09/22 02:36:39;;;;;;;4.20;2.57;;;;;;;7.41;100.00;102471.03;6120358;23;20429;-74
2022/09/22 02:39:12;;;;;;;2.93;2.10;;;;;;;7.41;100.00;102471.03;6117932;23;20866;-73
2022/09/22 02:41:56;;;;;;;2.67;2.20;;;;;;;7.41;100.00;102471.03;6117520;23;20389;-74
2022/09/22 02:44:29;;;;;;;5.40;2.60;;;;;;;7.41;100.00;102471.03;6117231;23;20424;-74
2022/09/22 02:47:07;;;;;;;3.43;2.60;;;;;;;7.41;100.00;102471.03;6121118;23;21027;-73
2022/09/22 02:49:33;;;;;;;2.60;2.40;;;;;;;7.41;100.00;102471.03;6094024;23;20911;-74
2022/09/22 02:51:59;;;;;;;5.77;2.70;;;;;;;7.41;100.00;102471.03;6117038;23;20402;-73
2022/09/22 02:54:24;;;;;;;6.13;2.60;;;;;;;7.41;100.00;102471.03;6118347;23;20385;-74
2022/09/22 02:56:50;;;;;;;4.00;2.20;;;;;;;7.41;100.00;102471.03;6122243;23;20170;-74
2022/09/22 02:59:15;;;;;;;10.77;2.83;;;;;;;7.41;100.00;102471.03;6120800;23;20154;-74
2022/09/22 03:01:41;;;;;;;3.63;2.50;;;;;;;7.41;100.00;102471.03;6120542;23;20162;-74
2022/09/22 03:04:06;;;;;;;2.80;2.50;;;;;;;7.41;100.00;102471.03;6120191;23;20186;-74
2022/09/22 03:06:32;;;;;;;2.97;2.67;;;;;;;7.41;100.00;102471.03;6121192;23;20692;-74
2022/09/22 03:08:57;;;;;;;4.97;3.20;;;;;;;7.41;100.00;102471.03;6120890;23;20172;-76
2022/09/22 03:11:24;;;;;;;3.97;2.67;;;;;;;7.41;100.00;102471.03;6120467;23;20157;-74
2022/09/22 03:13:50;;;;;;;3.03;2.60;;;;;;;7.41;100.00;102471.03;6121818;23;20149;-74
2022/09/22 03:16:15;;;;;;;4.43;3.07;;;;;;;7.41;100.00;102471.03;6122076;23;20381;-74
2022/09/22 03:18:41;;;;;;;5.10;2.90;;;;;;;7.41;100.00;102471.03;6118550;23;20176;-74
2022/09/22 03:21:06;;;;;;;4.17;2.87;;;;;;;7.41;100.00;102471.03;6110779;23;20501;-67
2022/09/22 03:23:32;;;;;;;4.77;3.53;;;;;;;7.41;100.00;102471.03;6113657;23;20687;-66
2022/09/22 03:25:57;;;;;;;4.07;3.03;;;;;;;7.41;100.00;102471.03;6117531;23;20178;-68
2022/09/22 03:28:23;;;;;;;3.93;2.87;;;;;;;7.41;100.00;102471.03;6090342;23;20166;-67
2022/09/22 03:30:48;;;;;;;5.10;2.80;;;;;;;7.41;100.00;102471.03;6117687;23;20240;-67
2022/09/22 03:33:14;;;;;;;5.13;3.20;;;;;;;7.41;100.00;102471.03;6115393;23;20252;-66
2022/09/22 03:35:40;;;;;;;6.23;3.37;;;;;;;7.41;100.00;102471.03;6116402;23;20256;-67
2022/09/22 03:38:05;;;;;;;4.53;2.97;;;;;;;7.41;100.00;102471.03;6117681;23;20526;-67
2022/09/22 03:40:30;;;;;;;4.93;2.90;;;;;;;7.41;100.00;102471.03;6118862;23;20401;-67
2022/09/22 03:42:56;;;;;;;4.10;2.97;;;;;;;7.41;100.00;102471.03;6117322;23;20629;-66
2022/09/22 03:45:21;;;;;;;4.77;2.63;;;;;;;7.41;100.00;102471.03;6091624;23;20161;-67
2022/09/22 03:47:47;;;;;;;3.53;2.60;;;;;;;7.41;100.00;102471.03;6118036;23;20185;-67
2022/09/22 03:50:13;;;;;;;3.47;2.43;;;;;;;7.41;100.00;102471.03;6118594;23;20253;-67
2022/09/22 03:52:40;;;;;;;5.30;2.90;;;;;;;7.41;100.00;102471.03;6119642;23;20585;-66
2022/09/22 03:55:06;;;;;;;3.43;2.60;;;;;;;7.41;100.00;102471.03;6117189;23;20180;-67
2022/09/22 03:57:32;;;;;;;5.80;3.53;;;;;;;7.41;100.00;102471.03;6118425;23;20378;-67
2022/09/22 03:59:57;;;;;;;4.37;3.40;;;;;;;7.41;100.00;102471.03;6117322;23;20500;-67
2022/09/22 04:02:23;;;;;;;4.37;3.67;;;;;;;7.41;100.00;102471.03;6113203;23;20509;-66
2022/09/22 04:04:48;;;;;;;4.07;2.80;;;;;;;7.41;100.00;102471.03;6090591;23;20158;-67
2022/09/22 04:07:13;;;;;;;5.37;2.80;;;;;;;7.41;100.00;102471.03;6117534;23;20195;-67
2022/09/22 04:09:40;;;;;;;3.83;2.87;;;;;;;7.41;100.00;102471.03;6118075;23;20173;-68
2022/09/22 04:12:07;;;;;;;3.70;2.57;;;;;;;7.41;100.00;102471.03;6120420;23;20154;-67
2022/09/22 04:14:33;;;;;;;3.77;2.70;;;;;;;7.41;100.00;102471.03;6116733;23;20378;-67
2022/09/22 04:16:58;;;;;;;2.80;2.60;;;;;;;7.41;100.00;102471.03;6116973;23;20846;-66
2022/09/22 04:19:23;;;;;;;3.70;2.80;;;;;;;7.41;100.00;102471.03;6118155;23;20236;-67
2022/09/22 04:21:49;;;;;;;3.27;2.87;;;;;;;7.41;100.00;102471.03;6118673;23;20154;-66
2022/09/22 04:24:15;;;;;;;4.33;2.80;;;;;;;7.41;100.00;102471.03;6117539;23;20178;-67
2022/09/22 04:26:42;;;;;;;4.97;3.50;;;;;;;7.41;100.00;102471.03;6117442;23;20149;-66
2022/09/22 04:29:08;;;;;;;2.50;2.20;;;;;;;7.41;100.00;102471.03;6117702;23;20378;-66
2022/09/22 04:31:33;;;;;;;4.53;2.80;;;;;;;7.41;100.00;102471.03;6115483;23;20497;-66
2022/09/22 04:33:59;;;;;;;3.03;2.63;;;;;;;7.41;100.00;102471.03;6091318;23;20245;-66
2022/09/22 04:36:24;;;;;;;5.33;2.33;;;;;;;7.41;100.00;102471.03;6118824;23;20182;-66
2022/09/22 04:38:49;;;;;;;3.20;2.90;;;;;;;7.41;100.00;102471.03;6117898;23;20174;-66
2022/09/22 04:41:15;;;;;;;4.23;3.17;;;;;;;7.41;100.00;102471.03;6118752;23;20620;-67
2022/09/22 04:43:41;;;;;;;7.17;2.40;;;;;;;7.41;100.00;102471.03;6118101;23;20633;-67
2022/09/22 04:46:06;;;;;;;2.83;2.60;;;;;;;7.41;100.00;102471.03;6117678;23;20154;-67
2022/09/22 04:48:32;;;;;;;3.90;2.93;;;;;;;7.41;100.00;102471.03;6114502;23;20391;-67
2022/09/22 04:50:57;;;;;;;3.10;2.50;;;;;;;7.41;100.00;102471.03;6114344;23;20522;-67
2022/09/22 04:53:22;;;;;;;3.00;2.63;;;;;;;7.41;100.00;102471.03;6115531;23;20537;-67
2022/09/22 04:55:51;;;;;;;3.67;2.90;;;;;;;7.41;100.00;102471.03;6117793;23;20153;-67
2022/09/22 04:58:17;;;;;;;5.00;3.20;;;;;;;7.41;100.00;102471.03;6116887;23;20395;-67
2022/09/22 05:00:42;;;;;;;3.80;2.40;;;;;;;7.41;100.00;102471.03;6116285;23;20421;-67
2022/09/22 05:03:10;;;;;;;5.50;2.63;;;;;;;7.41;100.00;102471.03;6115262;23;20249;-67
2022/09/22 05:05:37;;;;;;;3.20;2.40;;;;;;;7.41;100.00;102471.03;6117965;23;20642;-67
2022/09/22 05:08:04;;;;;;;4.03;2.67;;;;;;;7.41;100.00;102471.03;6115359;23;20409;-67
2022/09/22 05:10:31;;;;;;;3.23;2.60;;;;;;;7.41;100.00;102471.03;6118892;23;20190;-67
2022/09/22 05:12:57;;;;;;;3.10;2.63;;;;;;;7.41;100.00;102471.03;6115782;23;20737;-67
2022/09/22 05:15:23;;;;;;;4.03;2.40;;;;;;;7.41;100.00;102471.03;6090824;23;20801;-67
2022/09/22 05:17:51;;;;;;;4.63;2.93;;;;;;;7.41;100.00;102471.03;6087698;23;20764;-67
2022/09/22 05:20:18;;;;;;;3.57;2.90;;;;;;;7.41;100.00;102471.03;6114870;23;20418;-68
2022/09/22 05:22:44;;;;;;;3.07;2.80;;;;;;;7.41;100.00;102471.03;6089045;23;20868;-67
2022/09/22 05:25:11;;;;;;;4.60;2.83;;;;;;;7.41;100.00;102471.03;6114037;23;20428;-67
2022/09/22 05:27:43;;;;;;;5.67;3.00;;;;;;;7.41;100.00;102471.03;6115122;23;20198;-68
2022/09/22 05:30:09;;;;;;;3.47;2.67;;;;;;;7.41;100.00;102471.03;6113096;23;20393;-68
2022/09/22 05:32:34;;;;;;;3.43;3.07;;;;;;;7.41;100.00;102471.03;6114159;23;20465;-68
2022/09/22 05:34:59;;;;;;;3.90;2.70;;;;;;;7.41;100.00;102471.03;6111707;23;20920;-68
2022/09/22 05:37:25;;;;;;;4.30;2.60;;;;;;;7.41;100.00;102471.03;6111084;23;20153;-68
2022/09/22 05:39:50;;;;;;;4.97;2.87;;;;;;;7.41;100.00;102471.03;6111780;23;20181;-68
2022/09/22 05:42:16;;;;;;;3.10;2.70;;;;;;;7.41;100.00;102471.03;6112396;23;20593;-67
2022/09/22 05:44:41;;;;;;;3.87;2.90;;;;;;;7.41;100.00;102471.03;6112914;23;20218;-67
2022/09/22 05:47:06;;;;;;;3.43;2.90;;;;;;;7.41;100.00;102471.03;6116271;23;20441;-67
2022/09/22 05:49:32;;;;;;;3.53;3.20;;;;;;;7.41;100.00;102471.03;6117117;23;20590;-67
2022/09/22 05:51:57;;;;;;;3.30;2.80;;;;;;;7.41;100.00;102471.03;6113277;23;20153;-68
2022/09/22 05:54:23;;;;;;;6.87;3.10;;;;;;;7.41;100.00;102471.03;6112601;23;20527;-68
2022/09/22 05:56:50;;;;;;;5.60;2.77;;;;;;;7.41;100.00;102471.03;6090834;23;20656;-67
2022/09/22 05:59:15;;;;;;;4.83;2.93;;;;;;;7.41;100.00;102471.03;6117437;23;20393;-68
2022/09/22 06:01:42;;;;;;;3.50;2.60;;;;;;;7.41;100.00;102471.03;6117539;23;20716;-67
2022/09/22 06:04:08;;;;;;;5.40;2.97;;;;;;;7.41;100.00;102471.03;6114137;23;20180;-68
2022/09/22 06:06:33;;;;;;;3.13;2.77;;;;;;;7.41;100.00;102471.03;6115397;23;20385;-68
2022/09/22 06:08:59;;;;;;;3.60;2.90;;;;;;;7.41;100.00;102471.03;6117779;23;20377;-67
2022/09/22 06:11:24;;;;;;;3.70;3.40;;;;;;;7.41;100.00;102471.03;6090357;23;20306;-68
2022/09/22 06:13:50;;;;;;;3.20;3.00;;;;;;;7.41;100.00;102471.03;6117156;23;20451;-68
2022/09/22 06:16:16;;;;;;;3.70;2.80;;;;;;;7.41;100.00;102471.03;6116146;23;20229;-68
2022/09/22 06:18:45;;;;;;;4.60;2.93;;;;;;;7.41;100.00;102471.03;6090256;23;20213;-67
2022/09/22 06:21:10;;;;;;;3.47;2.97;;;;;;;7.41;100.00;102471.03;6116342;23;20405;-67
2022/09/22 06:23:36;;;;;;;6.60;3.40;;;;;;;7.41;100.00;102471.03;6114995;23;20424;-68
2022/09/22 06:26:02;;;;;;;5.50;3.53;;;;;;;7.41;100.00;102471.03;6118244;23;20476;-68
2022/09/22 06:28:27;;;;;;;4.37;3.27;;;;;;;7.41;100.00;102471.03;6115377;23;20228;-67
2022/09/22 06:30:57;;;;;;;4.97;2.90;;;;;;;7.41;100.00;102471.03;6114104;23;20440;-67
2022/09/22 06:33:22;;;;;;;3.10;2.80;;;;;;;7.41;100.00;102471.03;6090161;23;20150;-68
2022/09/22 06:35:48;;;;;;;4.47;3.33;;;;;;;7.41;100.00;102471.03;6092298;23;20474;-68
2022/09/22 06:38:14;;;;;;;5.60;3.93;;;;;;;7.41;100.00;102471.03;6116355;23;20236;-68
2022/09/22 06:40:43;;;;;;;4.10;2.87;;;;;;;7.41;100.00;102471.03;6091513;23;20416;-68
2022/09/22 06:43:19;;;;;;;5.83;3.33;;;;;;;7.41;100.00;102471.03;6089220;23;20268;-68
2022/09/22 06:45:45;;;;;;;3.40;3.00;;;;;;;7.41;100.00;102471.03;6090600;23;20412;-68
2022/09/22 06:48:11;;;;;;;4.60;3.20;;;;;;;7.41;100.00;102471.03;6115954;23;20835;-68
2022/09/22 06:50:39;;;;;;;4.10;3.20;;;;;;;7.41;100.00;102471.03;6091733;23;20461;-68
2022/09/22 06:53:06;;;;;;;4.80;3.57;;;;;;;7.41;100.00;102471.03;6116039;23;20231;-68
2022/09/22 06:55:32;;;;;;;3.87;3.43;;;;;;;7.41;100.00;102471.03;6094329;23;20456;-68
2022/09/22 06:57:59;;;;;;;4.07;3.37;;;;;;;7.41;100.00;102471.03;6116486;23;20833;-68
2022/09/22 07:00:33;;;;;;;4.90;2.80;;;;;;;7.41;100.00;102471.03;6117418;23;20174;-67
2022/09/22 07:03:19;;;;;;;6.97;4.17;;;;;;;7.41;100.00;102471.03;6090142;23;20417;-68
2022/09/22 07:05:57;;;;;;;4.87;3.83;;;;;;;7.41;100.00;102471.03;6117141;23;20422;-68
2022/09/22 07:08:23;;;;;;;6.03;4.00;;;;;;;7.41;100.00;102471.03;6117971;23;20708;-68
2022/09/22 07:10:57;;;;;;;5.13;3.80;;;;;;;7.41;100.00;102471.03;6087749;23;20862;-67
2022/09/22 07:13:28;;;;;;;7.77;4.07;;;;;;;7.41;100.00;102471.03;6114487;23;20382;-68
2022/09/22 07:16:02;;;;;;;6.57;3.90;;;;;;;7.41;100.00;102471.03;6114093;23;20825;-68
2022/09/22 07:18:28;;;;;;;5.50;3.63;;;;;;;7.41;100.00;102471.03;6118270;23;20389;-68
2022/09/22 07:21:15;;;;;;;5.87;3.90;;;;;;;7.41;100.00;102471.03;6119880;23;20480;-68
2022/09/22 07:23:42;;;;;;;7.07;3.53;;;;;;;7.41;100.00;102471.03;6113452;23;20452;-68
2022/09/22 07:26:11;;;;;;;4.30;3.80;;;;;;;7.41;100.00;102471.03;6093357;23;20859;-68
2022/09/22 07:28:37;;;;;;;6.03;3.80;;;;;;;7.41;100.00;102471.03;6118758;23;20476;-68
2022/09/22 07:31:12;;;;;;;7.80;4.43;;;;;;;7.41;100.00;102471.03;6118597;23;20400;-68
2022/09/22 07:33:41;;;;;;;6.53;4.20;;;;;;;7.41;100.00;102471.03;6115710;23;20524;-67
2022/09/22 07:36:13;;;;;;;7.63;4.37;;;;;;;7.41;100.00;102471.03;6118184;23;20448;-68
2022/09/22 07:38:40;;;;;;;9.47;4.83;;;;;;;7.41;100.00;102471.03;6118845;23;20888;-68
2022/09/22 07:41:10;;;;;;;8.67;4.03;;;;;;;7.41;100.00;102471.03;6119398;23;20423;-68
2022/09/22 07:43:36;;;;;;;8.20;3.77;;;;;;;7.41;100.00;102471.03;6114850;23;20476;-68
2022/09/22 07:46:02;;;;;;;9.00;4.10;;;;;;;7.41;100.00;102471.03;6090545;23;20464;-68
2022/09/22 07:48:35;;;;;;;5.90;4.30;;;;;;;7.41;100.00;102471.03;6093507;23;20436;-68
2022/09/22 07:51:01;;;;;;;5.87;4.27;;;;;;;7.41;100.00;102471.03;6118557;23;20212;-68
2022/09/22 07:53:26;;;;;;;5.87;3.73;;;;;;;7.41;100.00;102471.03;6116088;23;20378;-67
2022/09/22 07:55:51;;;;;;;6.20;4.17;;;;;;;7.41;100.00;102471.03;6093752;23;21221;-66
2022/09/22 07:58:17;;;;;;;5.50;3.33;;;;;;;7.41;100.00;102471.03;6116927;23;20165;-66
2022/09/22 08:00:42;;;;;;;3.83;3.53;;;;;;;7.41;100.00;102471.03;6117685;23;20193;-66
2022/09/22 08:03:08;;;;;;;4.17;3.53;;;;;;;7.41;100.00;102471.03;6118446;23;20182;-66
2022/09/22 08:05:33;;;;;;;7.53;3.40;;;;;;;7.41;100.00;102471.03;6116908;23;20504;-66
2022/09/22 08:08:01;;;;;;;5.20;3.80;;;;;;;7.41;100.00;102471.03;6117992;23;20182;-66
2022/09/22 08:10:26;;;;;;;6.63;3.83;;;;;;;7.41;100.00;102471.03;6118660;23;20185;-66
2022/09/22 08:12:56;;;;;;;8.77;4.17;;;;;;;7.41;100.00;102471.03;6090959;23;20383;-66
2022/09/22 08:15:22;;;;;;;7.27;3.40;;;;;;;7.41;100.00;102471.03;6114392;23;20577;-67
2022/09/22 08:17:48;;;;;;;6.20;3.43;;;;;;;7.41;100.00;102471.03;6117575;23;20386;-67
2022/09/22 08:20:13;;;;;;;4.43;3.40;;;;;;;7.41;100.00;102471.03;6118292;23;20245;-67
2022/09/22 08:22:40;;;;;;;5.73;3.60;;;;;;;7.41;100.00;102471.03;6116875;23;20758;-66
2022/09/22 08:25:06;;;;;;;7.07;3.43;;;;;;;7.41;100.00;102471.03;6113380;23;20180;-67
2022/09/22 08:27:35;;;;;;;3.70;2.80;;;;;;;7.41;100.00;102471.03;6091979;23;20458;-67
2022/09/22 08:30:01;;;;;;;7.50;3.83;;;;;;;7.41;100.00;102471.03;6116204;23;20789;-66
2022/09/22 08:32:29;;;;;;;6.20;4.17;;;;;;;7.41;100.00;102471.03;6091335;23;20864;-66
2022/09/22 08:34:56;;;;;;;7.77;3.80;;;;;;;7.41;100.00;102471.03;6118340;23;20158;-67
2022/09/22 08:37:23;;;;;;;3.60;2.90;;;;;;;7.41;100.00;102471.03;6115679;23;20817;-67
2022/09/22 08:39:48;;;;;;;4.17;3.07;;;;;;;7.41;100.00;102471.03;6113492;23;20793;-66
2022/09/22 08:42:21;;;;;;;3.67;2.97;;;;;;;7.41;100.00;102471.03;6111829;23;20388;-66
2022/09/22 08:45:16;;;;;;;4.73;2.80;;;;;;;7.41;100.00;102471.03;6088316;23;20662;-67
2022/09/22 08:53:42;;;;;;;2.63;2.10;;;;;;;7.41;100.00;102471.03;6117252;23;20411;-66
2022/09/22 08:56:31;;;;;;;4.20;2.10;;;;;;;7.41;100.00;102471.03;6116542;23;20817;-67
2022/09/22 08:59:21;;;;;;;3.87;2.10;;;;;;;7.41;100.00;102471.03;6089480;23;20374;-67
2022/09/22 09:02:05;;;;;;;4.03;2.10;;;;;;;7.41;100.00;102471.03;6114496;23;20362;-67
2022/09/22 09:04:57;;;;;;;8.60;2.60;;;;;;;7.41;100.00;102471.03;6083672;23;20433;-66
2022/09/22 09:07:35;;;;;;;4.07;1.90;;;;;;;7.41;100.00;102471.03;6112867;23;20713;-66
2022/09/22 09:10:06;;;;;;;4.67;2.30;;;;;;;7.41;100.00;102471.03;6088587;23;20893;-66
2022/09/22 09:12:45;;;;;;;2.40;2.20;;;;;;;7.41;100.00;102471.03;6117317;23;20381;-66
2022/09/22 09:15:13;;;;;;;9.60;2.50;;;;;;;7.41;100.00;102471.03;6116607;23;20425;-66
2022/09/22 09:17:43;;;;;;;5.30;2.37;;;;;;;7.41;100.00;102471.03;6093475;23;20445;-66
2022/09/22 09:20:17;;;;;;;4.10;2.27;;;;;;;7.41;100.00;102471.03;6120234;23;20429;-66
2022/09/22 09:22:49;;;;;;;3.20;2.23;;;;;;;7.41;100.00;102471.03;6116299;23;20366;-66
2022/09/22 09:25:21;;;;;;;4.97;2.67;;;;;;;7.41;100.00;102471.03;6115146;23;20401;-66
2022/09/22 09:27:53;;;;;;;3.63;2.70;;;;;;;7.41;100.00;102471.03;6120359;23;20366;-66
2022/09/22 09:30:20;;;;;;;3.53;2.07;;;;;;;7.41;100.00;102471.03;6118632;23;20497;-66
2022/09/22 09:32:51;;;;;;;5.87;3.10;;;;;;;7.41;100.00;102471.03;6119564;23;20447;-67
2022/09/22 09:35:31;;;;;;;6.00;3.07;;;;;;;7.41;100.00;102471.03;6118048;23;20362;-66
2022/09/22 09:38:00;;;;;;;4.40;2.57;;;;;;;7.41;100.00;102471.03;6119082;23;20366;-66
2022/09/22 09:40:26;;;;;;;6.30;2.80;;;;;;;7.41;100.00;102471.03;6121115;23;20401;-66
2022/09/22 09:43:03;;;;;;;8.10;2.73;;;;;;;7.41;100.00;102471.03;6090540;23;20440;-66
2022/09/22 09:45:53;;;;;;;6.73;2.70;;;;;;;7.41;100.00;102471.03;6088768;23;20384;-66
2022/09/22 09:48:43;;;;;;;5.80;2.50;;;;;;;7.41;100.00;102471.03;6045323;23;20389;-66
2022/09/22 09:51:12;;;;;;;3.37;2.20;;;;;;;7.41;100.00;102471.03;6119621;23;20401;-67
2022/09/22 09:53:43;;;;;;;3.00;1.90;;;;;;;7.41;100.00;102471.03;6091360;23;20404;-67
2022/09/22 09:56:17;;;;;;;5.30;2.17;;;;;;;7.41;100.00;102471.03;6119824;23;20409;-68
2022/09/22 10:01:44;;;;;;;4.93;2.30;;;;;;;7.41;100.00;102471.03;6118530;23;20795;-67
2022/09/22 10:04:32;;;;;;;3.23;1.80;;;;;;;7.41;100.00;102471.03;6113957;23;20487;-67
2022/09/22 10:07:13;;;;;;;3.13;1.47;;;;;;;7.41;100.00;102471.03;6088275;23;20378;-67
2022/09/22 10:09:39;;;;;;;4.13;2.50;;;;;;;7.41;100.00;102471.03;6082164;23;20409;-67
2022/09/22 10:12:10;;;;;;;7.13;2.00;;;;;;;7.41;100.00;102471.03;6086464;23;20386;-68
2022/09/22 10:14:36;;;;;;;7.13;2.17;;;;;;;7.41;100.00;102471.03;6111625;23;20736;-67
2022/09/22 10:17:02;;;;;;;3.33;1.73;;;;;;;7.41;100.00;102471.03;6117861;23;20445;-67
2022/09/22 10:19:28;;;;;;;4.47;1.90;;;;;;;7.41;100.00;102471.03;6117604;23;20565;-68
2022/09/22 10:22:15;;;;;;;3.30;1.53;;;;;;;7.41;100.00;102471.03;6091681;23;20394;-67
2022/09/22 10:24:50;;;;;;;2.97;1.60;;;;;;;7.41;100.00;102471.03;6117254;23;20161;-67
2022/09/22 10:27:20;;;;;;;2.87;1.63;;;;;;;7.41;100.00;102471.03;6093492;23;20754;-68
2022/09/22 10:29:46;;;;;;;3.90;1.87;;;;;;;7.41;100.00;102471.03;6092251;23;20489;-67
2022/09/22 10:32:14;;;;;;;3.10;1.77;;;;;;;7.41;100.00;102471.03;6117977;23;20855;-68
2022/09/22 10:34:43;;;;;;;4.83;1.90;;;;;;;7.41;100.00;102471.03;6117328;23;20236;-67
2022/09/22 10:37:12;;;;;;;6.73;1.83;;;;;;;7.41;100.00;102471.03;6093483;23;20401;-68
2022/09/22 10:39:48;;;;;;;5.03;1.60;;;;;;;7.41;100.00;102471.03;6119013;23;20876;-67
2022/09/22 10:42:26;;;;;;;3.20;1.90;;;;;;;7.41;100.00;102471.03;6092277;23;20513;-68
2022/09/22 10:44:53;;;;;;;4.77;2.43;;;;;;;7.41;100.00;102471.03;6090206;23;20987;-68
2022/09/22 10:47:31;;;;;;;3.50;1.70;;;;;;;7.41;100.00;102471.03;6118983;23;20865;-68
2022/09/22 10:50:15;;;;;;;4.57;1.70;;;;;;;7.41;100.00;102471.03;6118270;23;20776;-68
2022/09/22 10:52:48;;;;;;;2.13;1.60;;;;;;;7.41;100.00;102471.03;6116613;23;20369;-68
2022/09/22 10:55:31;;;;;;;5.57;2.60;;;;;;;7.41;100.00;102471.03;6117089;23;20365;-74
2022/09/22 10:58:00;;;;;;;8.10;2.00;;;;;;;7.41;100.00;102471.03;6118135;23;20477;-72
2022/09/22 11:00:27;;;;;;;6.30;2.50;;;;;;;7.41;100.00;102471.03;6092948;23;20444;-75
2022/09/22 11:03:23;;;;;;;2.97;2.17;;;;;;;7.41;100.00;102471.03;6116238;23;20417;-74
2022/09/22 11:12:52;;;;;;;4.70;2.30;;;;;;;7.41;100.00;102471.03;6119834;23;20706;-75
2022/09/22 11:15:17;;;;;;;3.23;1.93;;;;;;;7.41;100.00;102471.03;6119644;23;20366;-74
2022/09/22 11:17:54;;;;;;;3.83;2.10;;;;;;;7.41;100.00;102471.03;6117446;23;20392;-75
2022/09/22 11:20:37;;;;;;;3.67;2.30;;;;;;;16.41;100.00;102357.69;6119132;23;20177;-74
2022/09/22 11:23:38;;;;;;;3.50;2.10;;;;;;;16.39;100.00;102359.75;6117513;23;20436;-76
2022/09/22 11:26:30;;;;;;;7.23;2.53;;;;;;;14.07;100.00;101987.75;6116019;23;20389;-75
2022/09/22 11:29:19;;;;;;;3.60;2.00;;;;;;;15.31;100.00;102139.31;6092971;23;20404;-75
2022/09/22 11:32:03;;;;;;;7.10;2.00;;;;;;;16.89;100.00;102351.44;6060807;23;20424;-75
2022/09/22 11:34:49;;;;;;;5.33;2.10;;;;;;;16.49;100.00;102343.13;6116260;23;20405;-74
2022/09/22 11:37:28;;;;;;;5.30;2.20;;;;;;;15.82;100.00;102221.00;6120379;23;20402;-75
2022/09/22 11:40:27;;;;;;;2.63;2.13;;;;;;;15.27;100.00;102138.88;6090966;23;20713;-74
2022/09/22 11:43:14;;;;;;;6.80;2.00;;;;;;;16.67;100.00;102331.75;6108087;23;20433;-73
2022/09/22 11:45:48;;;;;;;5.93;2.17;;;;;;;15.63;100.00;102110.78;6093919;23;20413;-76
2022/09/22 11:48:47;;;;;;;2.70;1.87;;;;;;;15.90;100.00;102155.03;6120874;23;20365;-76
2022/09/22 11:51:31;;;;;;;3.30;1.87;;;;;;;17.18;100.00;102323.13;6093008;23;20401;-77
2022/09/22 11:53:59;;;;;;;3.03;1.80;;;;;;;17.48;100.00;102315.44;6117364;23;20832;-75
2022/09/22 11:56:34;;;;;;;7.10;2.40;;;;;;;15.87;100.00;102127.56;6090740;23;20904;-76